首页
METAR-TAF:

METAR-TAF

机场 :

科纳克里国际机场

科納克里, 几内亚

纬度: 09-34N, 经度: 013-37W, 海拔: 26米

当前天气观测

该预报发布于1小时和15分钟前的16:00 UTC
风速8节,风向西
温度 32°C
湿度 49%
气压 1009 hPa
能見度: 5000

METAR: GUCY 161600Z 26008KT 5000 HZ NSC 32/20 Q1009 NOSIG

时间: 17:15 (17:15 UTC)

预报

该预报发布于6小时和15分钟前的11:00 UTC
预报有效从16日的 12点(UTC)到 17日的 18点(UTC)
风速8节,风向西转西北
能見度: 5000
少量云层高于2000英尺
散云层高于12000英尺
几率 30% :
短暂存在
从 17日的 01点(UTC)到 17日的 09点(UTC)
风速2节,风向多变
能見度: 3000
轻雾

TAF: GUCY 161100Z 1612/1718 30008KT 5000 HZ FEW020 SCT120 PROB30 TEMPO 1701/1709 VRB02KT 3000 BR NSC

超过4000个机场的气象观测和天气预报(METAR&TAF报告)。

可查询的气象台以黄色和红色小点在地图上表示。

将鼠标移到小点上方,可查看气象台名称。

然后点击查看天气观测和预报。

如需切换地图:点击带黑十字的绿色按钮放大地图;点击带横线的绿色按钮缩小地图;或者点击绿色箭头查看邻近地区的地图。


METAR-TAF: